createdAt,value
2022-11-09T00:01:43.276Z,100895.94
2022-11-09T00:04:10.615Z,100897.56
2022-11-09T00:06:37.722Z,100887.06
2022-11-09T00:09:08.071Z,100891.28
2022-11-09T00:11:37.284Z,100886.81
2022-11-09T00:14:04.482Z,100886.72
2022-11-09T00:16:31.107Z,100885.31
2022-11-09T00:18:58.626Z,100891.47
2022-11-09T00:21:25.607Z,100887.91
2022-11-09T00:23:52.716Z,100888.69
2022-11-09T00:26:22.495Z,100883.31
2022-11-09T00:28:50.007Z,100893.97
2022-11-09T00:31:19.479Z,100882.34
2022-11-09T00:33:50.771Z,100878.88
2022-11-09T00:36:18.303Z,100884.03
2022-11-09T00:38:49.225Z,100880.97
2022-11-09T00:41:15.854Z,100887.91
2022-11-09T00:43:42.426Z,100888.25
2022-11-09T00:46:09.521Z,100886.91
2022-11-09T00:48:37.558Z,100888.53
2022-11-09T00:51:04.529Z,100880.63
2022-11-09T00:53:31.833Z,100882.59
2022-11-09T00:56:06.781Z,100877.66
2022-11-09T00:58:35.791Z,100877.13
2022-11-09T01:01:11.408Z,100876.19
2022-11-09T01:03:38.952Z,100870.09
2022-11-09T01:06:06.392Z,100872.22
2022-11-09T01:08:34.184Z,100875.09
2022-11-09T01:11:06.198Z,100874.72
2022-11-09T01:13:32.895Z,100873.56
2022-11-09T01:15:59.525Z,100872.06
2022-11-09T01:18:26.209Z,100867.97
2022-11-09T01:20:52.842Z,100873.50
2022-11-09T01:23:20.642Z,100872.50
2022-11-09T01:25:47.551Z,100868.78
2022-11-09T01:28:14.153Z,100870.50
2022-11-09T01:30:43.062Z,100876.12
2022-11-09T01:33:12.080Z,100861.59
2022-11-09T01:35:40.620Z,100866.19
2022-11-09T01:38:08.675Z,100872.31
2022-11-09T01:40:37.601Z,100864.53
2022-11-09T01:43:22.765Z,100861.63
2022-11-09T01:46:22.654Z,100859.22
2022-11-09T01:48:59.141Z,100855.53
2022-11-09T01:51:43.683Z,100854.16
2022-11-09T01:54:17.934Z,100853.47
2022-11-09T01:56:46.393Z,100857.56
2022-11-09T01:59:17.956Z,100848.03
2022-11-09T02:01:45.765Z,100848.84
2022-11-09T02:04:35.559Z,100844.16
2022-11-09T02:07:02.703Z,100840.00
2022-11-09T02:09:51.086Z,100843.56
2022-11-09T02:12:19.327Z,100837.16
2022-11-09T02:14:50.880Z,100838.13
2022-11-09T02:17:19.268Z,100834.59
2022-11-09T02:19:45.875Z,100832.00
2022-11-09T02:22:12.724Z,100836.47
2022-11-09T02:24:39.367Z,100819.22
2022-11-09T02:27:07.027Z,100824.63
2022-11-09T02:29:41.977Z,100823.63
2022-11-09T02:32:21.391Z,100823.81
2022-11-09T02:34:48.010Z,100835.97
2022-11-09T02:37:44.796Z,100829.47
2022-11-09T02:40:17.949Z,100831.91
2022-11-09T02:42:44.795Z,100835.34
2022-11-09T02:45:11.373Z,100828.34
2022-11-09T02:47:37.959Z,100817.03
2022-11-09T02:50:05.054Z,100821.38
2022-11-09T02:52:31.756Z,100822.72
2022-11-09T02:54:58.335Z,100820.94
2022-11-09T02:57:24.952Z,100823.75
2022-11-09T02:59:51.546Z,100830.19
2022-11-09T03:02:18.200Z,100823.41
2022-11-09T03:04:44.790Z,100822.72
2022-11-09T03:07:11.807Z,100822.06
2022-11-09T03:09:38.553Z,100825.81
2022-11-09T03:12:25.360Z,100824.38
2022-11-09T03:14:52.017Z,100816.87
2022-11-09T03:17:18.706Z,100822.59
2022-11-09T03:19:45.398Z,100826.78
2022-11-09T03:22:12.016Z,100827.25
2022-11-09T03:24:38.683Z,100832.12
2022-11-09T03:27:05.285Z,100830.53
2022-11-09T03:29:31.927Z,100826.63
2022-11-09T03:31:58.503Z,100822.59
2022-11-09T03:34:25.248Z,100822.59
2022-11-09T03:36:51.933Z,100824.72
2022-11-09T03:39:18.521Z,100820.50
2022-11-09T03:41:45.148Z,100816.94
2022-11-09T03:44:11.748Z,100821.66
2022-11-09T03:46:38.351Z,100822.00
2022-11-09T03:49:05.023Z,100821.66
2022-11-09T03:51:31.774Z,100827.19
2022-11-09T03:53:58.358Z,100826.03
2022-11-09T03:56:24.977Z,100828.31
2022-11-09T03:58:51.552Z,100827.03
2022-11-09T04:01:18.222Z,100826.84
2022-11-09T04:03:44.832Z,100824.44
2022-11-09T04:06:11.404Z,100817.50
2022-11-09T04:08:38.005Z,100821.34
2022-11-09T04:11:04.586Z,100813.41
2022-11-09T04:13:31.186Z,100818.06
2022-11-09T04:15:57.787Z,100814.47
2022-11-09T04:18:24.363Z,100816.84
2022-11-09T04:20:50.963Z,100815.44
2022-11-09T04:23:17.814Z,100815.03
2022-11-09T04:25:44.724Z,100815.50
2022-11-09T04:28:12.751Z,100816.22
2022-11-09T04:30:39.646Z,100811.34
2022-11-09T04:33:06.327Z,100809.91
2022-11-09T04:35:33.893Z,100811.66
2022-11-09T04:38:03.313Z,100813.13
2022-11-09T04:40:32.195Z,100813.94
2022-11-09T04:43:03.775Z,100819.09
2022-11-09T04:45:30.544Z,100817.00
2022-11-09T04:48:01.888Z,100819.09
2022-11-09T04:50:29.480Z,100818.31
2022-11-09T04:52:56.231Z,100812.91
2022-11-09T04:55:22.852Z,100818.78
2022-11-09T04:57:49.435Z,100814.94
2022-11-09T05:00:16.444Z,100811.34
2022-11-09T05:02:42.988Z,100823.31
2022-11-09T05:05:09.609Z,100825.12
2022-11-09T05:07:37.096Z,100821.53
2022-11-09T05:10:03.858Z,100823.44
2022-11-09T05:12:30.415Z,100822.69
2022-11-09T05:14:57.024Z,100829.94
2022-11-09T05:17:26.110Z,100830.13
2022-11-09T05:19:55.863Z,100827.37
2022-11-09T05:22:41.524Z,100832.22
2022-11-09T05:25:08.420Z,100828.03
2022-11-09T05:27:35.003Z,100836.31
2022-11-09T05:30:01.611Z,100829.19
2022-11-09T05:32:28.196Z,100830.13
2022-11-09T05:34:54.780Z,100831.97
2022-11-09T05:37:22.315Z,100838.28
2022-11-09T05:39:49.146Z,100834.09
2022-11-09T05:42:15.703Z,100841.25
2022-11-09T05:44:42.367Z,100833.28
2022-11-09T05:47:08.911Z,100835.91
2022-11-09T05:49:35.489Z,100837.56
2022-11-09T05:52:02.077Z,100835.28
2022-11-09T05:54:28.621Z,100840.78
2022-11-09T05:56:55.171Z,100851.13
2022-11-09T05:59:21.736Z,100842.06
2022-11-09T06:01:48.375Z,100842.72
2022-11-09T06:04:14.968Z,100842.09
2022-11-09T06:06:43.395Z,100843.72
2022-11-09T06:09:10.058Z,100841.31
2022-11-09T06:11:36.824Z,100837.41
2022-11-09T06:14:03.504Z,100842.44
2022-11-09T06:16:30.253Z,100842.09
2022-11-09T06:18:56.820Z,100842.56
2022-11-09T06:21:23.430Z,100850.53
2022-11-09T06:23:50.013Z,100846.03
2022-11-09T06:26:16.620Z,100852.16
2022-11-09T06:28:43.274Z,100852.62
2022-11-09T06:31:13.866Z,100852.78
2022-11-09T06:33:40.432Z,100852.78
2022-11-09T06:36:07.273Z,100853.38
2022-11-09T06:38:34.046Z,100859.09
2022-11-09T06:41:00.849Z,100854.53
2022-11-09T06:43:28.324Z,100855.38
2022-11-09T06:45:55.810Z,100856.63
2022-11-09T06:48:22.559Z,100859.22
2022-11-09T06:50:49.300Z,100855.66
2022-11-09T06:53:17.964Z,100853.75
2022-11-09T06:55:50.292Z,100856.34
2022-11-09T06:58:18.353Z,100854.53
2022-11-09T07:00:46.107Z,100856.66
2022-11-09T07:03:18.125Z,100853.75
2022-11-09T07:05:45.507Z,100841.78
2022-11-09T07:08:13.264Z,100843.19
2022-11-09T07:10:40.527Z,100834.13
2022-11-09T07:13:07.651Z,100839.31
2022-11-09T07:15:38.627Z,100835.25
2022-11-09T07:18:08.220Z,100836.94
2022-11-09T07:20:35.030Z,100836.78
2022-11-09T07:23:01.642Z,100837.75
2022-11-09T07:25:28.432Z,100838.28
2022-11-09T07:27:55.048Z,100835.91
2022-11-09T07:30:21.657Z,100836.53
2022-11-09T07:35:34.756Z,100846.47
2022-11-09T07:38:01.937Z,100843.03
2022-11-09T07:40:28.972Z,100844.69
2022-11-09T07:43:00.055Z,100841.47
2022-11-09T07:45:27.723Z,100847.25
2022-11-09T07:47:58.738Z,100846.91
2022-11-09T07:50:25.873Z,100841.03
2022-11-09T07:52:52.508Z,100840.37
2022-11-09T07:55:19.097Z,100840.09
2022-11-09T07:57:47.177Z,100829.78
2022-11-09T08:00:15.604Z,100834.72
2022-11-09T08:02:44.584Z,100840.66
2022-11-09T08:05:11.167Z,100837.22
2022-11-09T08:07:37.743Z,100835.31
2022-11-09T08:10:04.739Z,100839.94
2022-11-09T08:12:35.896Z,100835.69
2022-11-09T08:15:05.009Z,100835.50
2022-11-09T08:17:32.353Z,100836.16
2022-11-09T08:19:58.891Z,100842.75
2022-11-09T08:22:25.455Z,100833.91
2022-11-09T08:24:52.138Z,100832.56
2022-11-09T08:27:18.738Z,100827.19
2022-11-09T08:29:45.388Z,100832.38
2022-11-09T08:32:12.333Z,100835.25
2022-11-09T08:34:38.999Z,100832.06
2022-11-09T08:37:05.731Z,100831.88
2022-11-09T08:39:32.317Z,100829.91
2022-11-09T08:41:58.906Z,100828.44
2022-11-09T08:44:25.455Z,100831.22
2022-11-09T08:46:52.020Z,100837.37
2022-11-09T08:49:18.572Z,100831.84
2022-11-09T08:51:45.181Z,100834.13
2022-11-09T08:54:13.525Z,100832.63
2022-11-09T08:56:40.197Z,100823.37
2022-11-09T08:59:06.764Z,100822.81
2022-11-09T09:01:33.660Z,100834.22
2022-11-09T09:04:00.303Z,100828.75
2022-11-09T09:06:30.799Z,100830.06
2022-11-09T09:08:58.074Z,100823.25
2022-11-09T09:11:24.631Z,100818.09
2022-11-09T09:13:51.178Z,100821.31
2022-11-09T09:16:17.805Z,100824.06
2022-11-09T09:18:44.450Z,100826.16
2022-11-09T09:21:11.429Z,100822.16
2022-11-09T09:23:38.045Z,100827.53
2022-11-09T09:26:04.882Z,100828.34
2022-11-09T09:28:32.298Z,100829.31
2022-11-09T09:31:00.178Z,100833.22
2022-11-09T09:33:27.719Z,100833.97
2022-11-09T09:35:58.672Z,100834.28
2022-11-09T09:38:26.702Z,100832.97
2022-11-09T09:41:02.694Z,100843.78
2022-11-09T09:43:41.465Z,100835.09
2022-11-09T09:46:43.600Z,100822.50
2022-11-09T09:49:18.982Z,100818.31
2022-11-09T09:51:54.109Z,100823.09
2022-11-09T09:54:29.829Z,100810.94
2022-11-09T09:57:00.265Z,100802.87
2022-11-09T09:59:35.626Z,100810.75
2022-11-09T10:02:02.198Z,100809.91
2022-11-09T10:04:38.583Z,100802.50
2022-11-09T10:07:22.772Z,100800.41
2022-11-09T10:10:10.553Z,100807.72
2022-11-09T10:13:04.725Z,100801.47
2022-11-09T10:15:46.597Z,100794.88
2022-11-09T10:18:39.502Z,100794.84
2022-11-09T10:21:12.366Z,100792.47
2022-11-09T10:24:03.440Z,100789.66
2022-11-09T10:26:54.067Z,100800.78
2022-11-09T10:29:27.959Z,100786.06
2022-11-09T10:32:01.355Z,100795.34
2022-11-09T10:34:38.781Z,100781.25
2022-11-09T10:37:22.104Z,100783.38
2022-11-09T10:40:20.901Z,100784.66
2022-11-09T10:43:05.973Z,100781.88
2022-11-09T10:45:35.646Z,100779.16
2022-11-09T10:48:02.964Z,100785.28
2022-11-09T10:50:46.385Z,100779.66
2022-11-09T10:53:15.506Z,100774.81
2022-11-09T10:55:55.077Z,100767.81
2022-11-09T10:58:49.927Z,100765.94
2022-11-09T11:01:22.993Z,100763.41
2022-11-09T11:03:51.576Z,100766.41
2022-11-09T11:06:21.392Z,100763.91
2022-11-09T11:08:47.932Z,100763.13
2022-11-09T11:11:35.717Z,100766.09
2022-11-09T11:14:23.434Z,100755.56
2022-11-09T11:16:53.092Z,100760.41
2022-11-09T11:19:35.323Z,100747.59
2022-11-09T11:22:23.428Z,100754.69
2022-11-09T11:25:01.250Z,100755.19
2022-11-09T11:27:45.126Z,100748.50
2022-11-09T11:30:19.453Z,100745.25
2022-11-09T11:32:50.349Z,100748.19
2022-11-09T11:35:35.094Z,100738.19
2022-11-09T11:38:04.572Z,100741.03
2022-11-09T11:40:56.419Z,100740.50
2022-11-09T11:43:34.470Z,100743.06
2022-11-09T11:46:16.487Z,100737.56
2022-11-09T11:49:06.085Z,100741.25
2022-11-09T11:51:51.012Z,100738.94
2022-11-09T11:54:52.938Z,100738.19
2022-11-09T11:57:34.714Z,100731.03
2022-11-09T12:00:15.464Z,100730.31
2022-11-09T12:02:57.283Z,100738.00
2022-11-09T12:05:55.060Z,100735.84
2022-11-09T12:08:33.851Z,100733.13
2022-11-09T12:11:31.158Z,100731.78
2022-11-09T12:14:20.994Z,100727.84
2022-11-09T12:17:07.137Z,100730.69
2022-11-09T12:20:03.205Z,100727.78
2022-11-09T12:22:29.842Z,100729.56
2022-11-09T12:25:11.294Z,100731.69
2022-11-09T12:28:21.915Z,100730.56
2022-11-09T12:30:54.962Z,100723.69
2022-11-09T12:33:47.213Z,100739.84
2022-11-09T12:36:23.096Z,100728.59
2022-11-09T12:38:58.510Z,100725.94
2022-11-09T12:41:33.525Z,100732.59
2022-11-09T12:43:59.993Z,100722.34
2022-11-09T12:46:38.601Z,100722.66
2022-11-09T12:49:06.093Z,100727.03
2022-11-09T12:51:34.529Z,100730.91
2022-11-09T12:54:09.961Z,100719.34
2022-11-09T12:56:42.349Z,100723.16
2022-11-09T12:59:27.284Z,100723.84
2022-11-09T13:02:01.725Z,100714.00
2022-11-09T13:04:29.370Z,100718.09
2022-11-09T13:07:14.457Z,100720.25
2022-11-09T13:09:45.096Z,100700.91
2022-11-09T13:12:26.798Z,100704.28
2022-11-09T13:14:53.718Z,100716.94
2022-11-09T13:17:26.065Z,100717.34
2022-11-09T13:19:56.661Z,100710.31
2022-11-09T13:22:23.213Z,100707.03
2022-11-09T13:24:51.688Z,100706.84
2022-11-09T13:27:41.247Z,100705.28
2022-11-09T13:30:30.875Z,100707.84
2022-11-09T13:33:06.609Z,100702.09
2022-11-09T13:35:42.314Z,100697.19
2022-11-09T13:38:31.719Z,100702.41
2022-11-09T13:41:00.239Z,100694.34
2022-11-09T13:43:31.166Z,100702.66
2022-11-09T13:45:59.883Z,100692.31
2022-11-09T13:48:34.904Z,100699.16
2022-11-09T13:51:08.416Z,100698.63
2022-11-09T13:53:37.996Z,100690.47
2022-11-09T13:56:32.618Z,100687.56
2022-11-09T13:59:28.329Z,100690.22
2022-11-09T14:01:57.224Z,100691.59
2022-11-09T14:04:35.331Z,100689.28
2022-11-09T14:07:10.997Z,100700.53
2022-11-09T14:10:35.982Z,100690.78
2022-11-09T14:13:29.770Z,100691.84
2022-11-09T14:16:41.769Z,100691.84
2022-11-09T14:19:20.181Z,100696.91
2022-11-09T14:21:50.697Z,100701.06
2022-11-09T14:24:33.587Z,100701.56
2022-11-09T14:27:08.981Z,100697.03
2022-11-09T14:29:56.830Z,100702.31
2022-11-09T14:32:43.578Z,100702.97
2022-11-09T14:35:22.630Z,100699.62
2022-11-09T14:37:50.788Z,100692.47
2022-11-09T14:40:20.413Z,100691.22
2022-11-09T14:43:02.348Z,100701.44
2022-11-09T14:45:29.254Z,100692.72
2022-11-09T14:47:58.947Z,100695.00
2022-11-09T14:50:35.941Z,100695.81
2022-11-09T14:53:03.263Z,100687.66
2022-11-09T14:55:39.855Z,100677.81
2022-11-09T14:58:11.535Z,100687.47
2022-11-09T15:00:40.669Z,100685.44
2022-11-09T15:03:31.598Z,100682.47
2022-11-09T15:06:10.043Z,100688.81
2022-11-09T15:08:40.758Z,100685.25
2022-11-09T15:11:08.049Z,100692.22
2022-11-09T15:13:40.860Z,100694.69
2022-11-09T15:16:08.365Z,100689.91
2022-11-09T15:18:41.982Z,100695.81
2022-11-09T15:21:17.987Z,100699.88
2022-11-09T15:23:48.005Z,100707.50
2022-11-09T15:26:45.834Z,100701.84
2022-11-09T15:29:36.716Z,100695.13
2022-11-09T15:32:17.391Z,100696.41
2022-11-09T15:34:55.823Z,100708.28
2022-11-09T15:37:43.429Z,100705.47
2022-11-09T15:40:19.048Z,100699.38
2022-11-09T15:42:46.543Z,100703.78
2022-11-09T15:45:20.173Z,100697.72
2022-11-09T15:47:53.338Z,100696.97
2022-11-09T15:50:24.065Z,100695.25
2022-11-09T15:52:50.837Z,100695.81
2022-11-09T15:55:22.177Z,100692.66
2022-11-09T15:57:50.888Z,100686.81
2022-11-09T16:00:21.260Z,100693.41
2022-11-09T16:02:47.961Z,100694.00
2022-11-09T16:05:15.745Z,100703.97
2022-11-09T16:07:54.070Z,100685.84
2022-11-09T16:10:23.419Z,100692.22
2022-11-09T16:12:53.444Z,100698.66
2022-11-09T16:15:20.418Z,100696.41
2022-11-09T16:17:49.651Z,100702.31
2022-11-09T16:20:20.238Z,100702.22
2022-11-09T16:22:47.889Z,100699.34
2022-11-09T16:25:15.110Z,100697.66
2022-11-09T16:27:51.056Z,100699.62
2022-11-09T16:30:19.579Z,100701.06
2022-11-09T16:32:46.319Z,100698.28
2022-11-09T16:35:29.041Z,100700.88
2022-11-09T16:37:58.069Z,100695.63
2022-11-09T16:40:25.851Z,100692.34
2022-11-09T16:42:52.416Z,100687.19
2022-11-09T16:45:19.957Z,100685.72
2022-11-09T16:47:50.177Z,100689.56
2022-11-09T16:50:17.059Z,100688.56
2022-11-09T16:52:43.695Z,100690.91
2022-11-09T16:55:12.713Z,100689.88
2022-11-09T16:57:39.391Z,100696.09
2022-11-09T17:00:07.124Z,100690.34
2022-11-09T17:02:33.740Z,100691.53
2022-11-09T17:05:00.350Z,100692.75
2022-11-09T17:07:27.657Z,100697.34
2022-11-09T17:09:54.228Z,100692.88
2022-11-09T17:12:23.253Z,100687.66
2022-11-09T17:14:49.812Z,100690.09
2022-11-09T17:17:22.646Z,100694.94
2022-11-09T17:19:49.836Z,100688.94
2022-11-09T17:22:16.932Z,100694.94
2022-11-09T17:24:43.558Z,100696.56
2022-11-09T17:27:11.430Z,100691.78
2022-11-09T17:29:38.864Z,100697.53
2022-11-09T17:32:08.704Z,100702.66
2022-11-09T17:34:35.786Z,100704.06
2022-11-09T17:37:04.599Z,100696.97
2022-11-09T17:39:32.168Z,100695.53
2022-11-09T17:41:58.822Z,100695.44
2022-11-09T17:44:25.413Z,100697.00
2022-11-09T17:46:52.264Z,100697.69
2022-11-09T17:49:18.824Z,100696.81
2022-11-09T17:51:45.392Z,100693.47
2022-11-09T17:54:12.066Z,100699.69
2022-11-09T17:56:39.076Z,100703.25
2022-11-09T17:59:05.758Z,100699.19
2022-11-09T18:01:37.791Z,100692.19
2022-11-09T18:04:09.100Z,100692.38
2022-11-09T18:06:35.878Z,100691.44
2022-11-09T18:09:34.845Z,100689.03
2022-11-09T18:11:50.044Z,100696.44
2022-11-09T18:14:16.658Z,100693.06
2022-11-09T18:16:43.277Z,100696.25
2022-11-09T18:19:09.817Z,100690.66
2022-11-09T18:21:37.572Z,100688.06
2022-11-09T18:24:04.650Z,100690.28
2022-11-09T18:26:31.743Z,100690.59
2022-11-09T18:28:58.727Z,100693.81
2022-11-09T18:31:25.334Z,100686.75
2022-11-09T18:33:53.263Z,100686.34
2022-11-09T18:36:21.630Z,100679.94
2022-11-09T18:38:51.857Z,100675.97
2022-11-09T18:41:22.004Z,100681.00
2022-11-09T18:43:50.392Z,100687.06
2022-11-09T18:46:18.755Z,100680.47
2022-11-09T18:48:45.498Z,100682.72
2022-11-09T18:51:12.667Z,100681.13
2022-11-09T18:53:44.613Z,100680.06
2022-11-09T18:56:18.881Z,100682.25
2022-11-09T18:58:46.206Z,100683.28
2022-11-09T19:01:13.136Z,100691.88
2022-11-09T19:03:39.802Z,100690.47
2022-11-09T19:06:08.644Z,100689.91
2022-11-09T19:08:54.076Z,100694.50
2022-11-09T19:11:23.480Z,100686.25
2022-11-09T19:13:50.086Z,100691.44
2022-11-09T19:16:20.251Z,100686.00
2022-11-09T19:18:46.822Z,100690.16
2022-11-09T19:21:34.225Z,100686.09
2022-11-09T19:24:00.867Z,100692.66
2022-11-09T19:26:29.987Z,100693.41
2022-11-09T19:28:58.982Z,100683.06
2022-11-09T19:31:26.335Z,100686.28
2022-11-09T19:33:53.044Z,100692.84
2022-11-09T19:36:30.186Z,100680.66
2022-11-09T19:38:57.122Z,100690.25
2022-11-09T19:41:24.758Z,100686.28
2022-11-09T19:43:52.467Z,100696.22
2022-11-09T19:46:19.016Z,100691.41
2022-11-09T19:48:46.823Z,100693.03
2022-11-09T19:51:15.130Z,100694.63
2022-11-09T19:53:42.900Z,100699.38
2022-11-09T19:56:11.532Z,100693.81
2022-11-09T19:58:38.585Z,100695.34
2022-11-09T20:01:07.735Z,100691.37
2022-11-09T20:03:34.960Z,100686.53
2022-11-09T20:06:02.497Z,100691.09
2022-11-09T20:08:29.185Z,100696.28
2022-11-09T20:10:55.805Z,100696.19
2022-11-09T20:13:24.823Z,100691.37
2022-11-09T20:15:51.379Z,100692.41
2022-11-09T20:18:19.067Z,100693.50
2022-11-09T20:20:45.840Z,100695.53
2022-11-09T20:23:13.255Z,100689.75
2022-11-09T20:25:41.137Z,100685.78
2022-11-09T20:28:07.678Z,100686.41
2022-11-09T20:30:39.405Z,100694.00
2022-11-09T20:33:07.029Z,100695.31
2022-11-09T20:35:34.005Z,100685.28
2022-11-09T20:38:02.756Z,100685.84
2022-11-09T20:40:29.753Z,100688.03
2022-11-09T20:42:56.347Z,100685.63
2022-11-09T20:45:22.922Z,100694.00
2022-11-09T20:48:07.724Z,100691.28
2022-11-09T20:50:36.515Z,100682.28
2022-11-09T20:53:04.045Z,100683.75
2022-11-09T20:55:30.656Z,100687.87
2022-11-09T20:57:57.291Z,100694.50
2022-11-09T21:00:24.699Z,100686.53
2022-11-09T21:02:51.442Z,100687.75
2022-11-09T21:05:18.439Z,100685.91
2022-11-09T21:07:49.395Z,100684.16
2022-11-09T21:10:16.773Z,100691.53
2022-11-09T21:12:46.053Z,100692.81
2022-11-09T21:15:16.007Z,100690.41
2022-11-09T21:17:42.678Z,100687.63
2022-11-09T21:20:14.900Z,100690.16
2022-11-09T21:22:59.931Z,100690.84
2022-11-09T21:25:47.483Z,100690.03
2022-11-09T21:28:34.839Z,100685.63
2022-11-09T21:31:07.787Z,100684.69
2022-11-09T21:33:34.599Z,100688.91
2022-11-09T21:36:09.029Z,100682.41
2022-11-09T21:38:36.954Z,100682.28
2022-11-09T21:41:24.907Z,100693.06
2022-11-09T21:43:55.738Z,100691.97
2022-11-09T21:46:24.103Z,100691.06
2022-11-09T21:48:51.187Z,100687.13
2022-11-09T21:51:20.331Z,100686.00
2022-11-09T21:53:47.218Z,100695.28
2022-11-09T21:56:16.392Z,100686.34
2022-11-09T21:58:46.037Z,100686.62
2022-11-09T22:01:13.285Z,100680.06
2022-11-09T22:03:41.516Z,100686.91
2022-11-09T22:06:09.073Z,100674.06
2022-11-09T22:08:35.738Z,100670.66
2022-11-09T22:11:05.581Z,100675.28
2022-11-09T22:13:51.098Z,100678.06
2022-11-09T22:16:22.521Z,100680.78
2022-11-09T22:19:08.290Z,100674.56
2022-11-09T22:21:34.891Z,100677.28
2022-11-09T22:24:02.623Z,100681.31
2022-11-09T22:26:30.923Z,100672.75
2022-11-09T22:28:58.414Z,100681.56
2022-11-09T22:31:25.227Z,100680.78
2022-11-09T22:33:52.158Z,100677.75
2022-11-09T22:36:19.112Z,100678.03
2022-11-09T22:38:47.603Z,100668.88
2022-11-09T22:41:15.396Z,100669.34
2022-11-09T22:43:43.563Z,100663.56
2022-11-09T22:46:12.740Z,100661.78
2022-11-09T22:48:40.103Z,100667.44
2022-11-09T22:51:08.383Z,100670.19
2022-11-09T22:53:35.155Z,100675.44
2022-11-09T22:56:03.707Z,100664.41
2022-11-09T22:58:30.899Z,100663.06
2022-11-09T23:01:11.651Z,100667.91
2022-11-09T23:03:38.487Z,100667.91
2022-11-09T23:06:08.176Z,100667.25
2022-11-09T23:08:38.426Z,100667.63
2022-11-09T23:11:11.954Z,100668.16
2022-11-09T23:13:38.588Z,100668.84
2022-11-09T23:16:08.813Z,100668.84
2022-11-09T23:18:54.769Z,100671.25
2022-11-09T23:21:33.540Z,100669.03
2022-11-09T23:24:02.489Z,100668.16
2022-11-09T23:26:32.656Z,100667.59
2022-11-09T23:29:00.138Z,100663.44
2022-11-09T23:31:27.114Z,100676.28
2022-11-09T23:33:56.059Z,100665.66
2022-11-09T23:36:26.101Z,100665.28
2022-11-09T23:38:52.867Z,100667.22
2022-11-09T23:41:19.601Z,100666.22
2022-11-09T23:43:49.203Z,100671.25
2022-11-09T23:46:17.187Z,100663.87
2022-11-09T23:48:43.810Z,100653.09
2022-11-09T23:51:11.038Z,100658.19
2022-11-09T23:53:37.902Z,100664.25
2022-11-09T23:56:09.703Z,100665.13
2022-11-09T23:58:36.700Z,100664.56
